Time;durP1;ratioP1;P1;durP2;ratioP2;P2;SDS_P1;SDS_P2;PMS_P1;PMS_P2;Temp;Humidity;BMP_temperature;BMP_pressure;BME280_temperature;BME280_humidity;BME280_pressure;Samples;Min_cycle;Max_cycle;Signal;HPM_P1;HPM_P2
2022/12/31 00:00:15;;;;;;;759.70;44.73;;;;;;;;;;4957820;28;20080;-73
2022/12/31 00:02:41;;;;;;;608.83;39.70;;;;;;;;;;4956991;28;20477;-75
2022/12/31 00:05:07;;;;;;;404.30;34.10;;;;;;;;;;4940020;28;20042;-73
2022/12/31 00:07:35;;;;;;;246.63;31.03;;;;;;;;;;4973327;28;20039;-73
2022/12/31 00:10:01;;;;;;;483.97;34.80;;;;;;;;;;4956712;28;20034;-73
2022/12/31 00:12:28;;;;;;;293.60;27.73;;;;;;;;;;4973957;28;20043;-73
2022/12/31 00:14:53;;;;;;;349.33;31.00;;;;;;;;;;4973466;28;20145;-73
2022/12/31 00:17:19;;;;;;;352.73;29.00;;;;;;;;;;4941051;28;20453;-73
2022/12/31 00:19:45;;;;;;;216.20;24.67;;;;;;;;;;4973660;28;20042;-73
2022/12/31 00:22:11;;;;;;;234.47;23.80;;;;;;;;;;4974140;28;20043;-73
2022/12/31 00:24:36;;;;;;;266.93;25.87;;;;;;;;;;4973359;28;20034;-73
2022/12/31 00:27:02;;;;;;;186.33;21.90;;;;;;;;;;4957318;28;20050;-72
2022/12/31 00:29:27;;;;;;;169.77;23.67;;;;;;;;;;4957167;28;20066;-73
2022/12/31 00:31:53;;;;;;;123.27;22.60;;;;;;;;;;4957165;28;20031;-73
2022/12/31 00:34:19;;;;;;;229.77;25.27;;;;;;;;;;4941507;28;20042;-72
2022/12/31 00:36:44;;;;;;;330.00;27.97;;;;;;;;;;4957123;28;20137;-73
2022/12/31 00:39:10;;;;;;;133.77;21.90;;;;;;;;;;4973217;28;20066;-73
2022/12/31 00:41:36;;;;;;;250.27;24.70;;;;;;;;;;4957480;28;20050;-73
2022/12/31 00:44:01;;;;;;;130.00;20.77;;;;;;;;;;4973278;28;20034;-73
2022/12/31 00:46:27;;;;;;;225.23;21.83;;;;;;;;;;4973061;28;20113;-73
2022/12/31 00:48:53;;;;;;;236.60;23.20;;;;;;;;;;4941118;28;20192;-74
2022/12/31 00:51:19;;;;;;;120.40;18.97;;;;;;;;;;4973143;28;20103;-72
2022/12/31 00:53:45;;;;;;;110.30;19.70;;;;;;;;;;4941093;28;20035;-72
2022/12/31 00:56:13;;;;;;;148.50;19.37;;;;;;;;;;4957025;28;20042;-72
2022/12/31 00:58:39;;;;;;;221.23;21.17;;;;;;;;;;4941445;28;20121;-72
2022/12/31 01:01:31;;;;;;;181.33;21.80;;;;;;;;;;4941934;28;20126;-71
2022/12/31 01:03:58;;;;;;;122.20;18.60;;;;;;;;;;4938313;28;20065;-71
2022/12/31 01:06:24;;;;;;;201.97;21.40;;;;;;;;;;4956594;28;20105;-72
2022/12/31 01:08:51;;;;;;;161.37;20.47;;;;;;;;;;4956852;28;20481;-72
2022/12/31 01:11:17;;;;;;;180.40;20.60;;;;;;;;;;4973108;28;20046;-71
2022/12/31 01:13:49;;;;;;;124.97;19.97;;;;;;;;;;4972763;28;20056;-71
2022/12/31 01:16:15;;;;;;;140.07;18.93;;;;;;;;;;4946148;28;20038;-71
2022/12/31 01:18:41;;;;;;;253.97;23.53;;;;;;;;;;4981078;28;20034;-71
2022/12/31 01:21:08;;;;;;;407.20;26.37;;;;;;;;;;4979576;28;20390;-71
2022/12/31 01:23:33;;;;;;;193.20;21.13;;;;;;;;;;4972518;28;20046;-71
2022/12/31 01:26:02;;;;;;;129.73;17.33;;;;;;;;;;4956274;28;20054;-71
2022/12/31 01:28:28;;;;;;;242.40;21.77;;;;;;;;;;4977856;28;20050;-71
2022/12/31 01:30:54;;;;;;;120.20;17.03;;;;;;;;;;4964268;28;20045;-71
2022/12/31 01:33:19;;;;;;;157.80;18.43;;;;;;;;;;4980365;28;20685;-70
2022/12/31 01:35:47;;;;;;;196.53;19.37;;;;;;;;;;4965882;28;20065;-72
2022/12/31 01:38:12;;;;;;;149.27;18.63;;;;;;;;;;4977599;28;20520;-72
2022/12/31 01:40:39;;;;;;;195.60;18.90;;;;;;;;;;4964845;28;20030;-70
2022/12/31 01:43:12;;;;;;;91.73;17.17;;;;;;;;;;4965433;28;20046;-70
2022/12/31 01:45:40;;;;;;;49.40;13.87;;;;;;;;;;4964783;28;20039;-71
2022/12/31 01:48:09;;;;;;;50.70;14.77;;;;;;;;;;4979749;28;20030;-70
2022/12/31 01:50:35;;;;;;;39.00;13.07;;;;;;;;;;4972004;28;20057;-70
2022/12/31 01:53:03;;;;;;;48.17;13.53;;;;;;;;;;4972051;28;20105;-72
2022/12/31 01:55:37;;;;;;;30.90;12.77;;;;;;;;;;4939786;28;20034;-72
2022/12/31 01:58:06;;;;;;;33.20;12.70;;;;;;;;;;4977297;28;20066;-72
2022/12/31 02:00:33;;;;;;;27.80;12.73;;;;;;;;;;4963206;28;20035;-70
2022/12/31 02:02:58;;;;;;;32.63;13.07;;;;;;;;;;4964168;28;20477;-70
2022/12/31 02:05:42;;;;;;;33.37;13.67;;;;;;;;;;4980508;28;20465;-70
2022/12/31 02:08:09;;;;;;;34.10;12.70;;;;;;;;;;4977903;28;20035;-71
2022/12/31 02:10:34;;;;;;;29.63;12.43;;;;;;;;;;4981917;28;20376;-71
2022/12/31 02:13:00;;;;;;;29.17;12.60;;;;;;;;;;4980275;28;20493;-71
2022/12/31 02:15:37;;;;;;;32.27;13.13;;;;;;;;;;4963384;28;20065;-74
2022/12/31 02:18:32;;;;;;;32.30;13.37;;;;;;;;;;4964290;28;20213;-71
2022/12/31 02:21:01;;;;;;;26.70;11.43;;;;;;;;;;4955307;28;20133;-71
2022/12/31 02:23:32;;;;;;;27.40;12.20;;;;;;;;;;4980809;28;20038;-70
2022/12/31 02:26:26;;;;;;;30.37;13.00;;;;;;;;;;4977405;28;20457;-71
2022/12/31 02:29:10;;;;;;;25.07;11.20;;;;;;;;;;4964439;28;20031;-69
2022/12/31 02:31:59;;;;;;;30.17;12.63;;;;;;;;;;4960428;28;20050;-71
2022/12/31 02:34:35;;;;;;;24.30;12.47;;;;;;;;;;4960539;28;20575;-71
2022/12/31 02:37:03;;;;;;;24.03;11.73;;;;;;;;;;4981987;28;20206;-69
2022/12/31 02:39:28;;;;;;;19.03;10.37;;;;;;;;;;4950408;28;20489;-70
2022/12/31 02:41:54;;;;;;;22.97;11.17;;;;;;;;;;4985356;28;20141;-70
2022/12/31 02:44:27;;;;;;;27.00;12.33;;;;;;;;;;4983639;28;20385;-70
2022/12/31 02:47:02;;;;;;;21.73;10.93;;;;;;;;;;4968594;28;20488;-71
2022/12/31 02:49:27;;;;;;;24.33;11.47;;;;;;;;;;4993760;28;20042;-71
2022/12/31 02:51:53;;;;;;;21.27;11.13;;;;;;;;;;4977477;28;20492;-70
2022/12/31 02:54:37;;;;;;;19.73;10.47;;;;;;;;;;4977646;28;20200;-70
2022/12/31 02:57:21;;;;;;;16.77;9.60;;;;;;;;;;4977401;28;20141;-70
2022/12/31 03:02:54;;;;;;;18.37;10.23;;;;;;;;;;4977233;28;20073;-71
2022/12/31 03:05:24;;;;;;;15.23;9.37;;;;;;;;;;4977342;28;20065;-71
2022/12/31 03:07:49;;;;;;;18.37;10.17;;;;;;;;;;4993792;28;20045;-70
2022/12/31 03:10:17;;;;;;;14.90;9.77;;;;;;;;;;4977321;28;20034;-70
2022/12/31 03:12:46;;;;;;;17.37;9.70;;;;;;;;;;4994321;28;20034;-71
2022/12/31 03:15:19;;;;;;;19.03;10.20;;;;;;;;;;4993510;28;20045;-72
2022/12/31 03:17:46;;;;;;;18.50;10.13;;;;;;;;;;4977177;28;20461;-72
2022/12/31 03:22:56;;;;;;;15.37;9.00;;;;;;;;;;4993259;28;20042;-72
2022/12/31 03:25:34;;;;;;;15.83;9.53;;;;;;;;;;4994299;28;20535;-72
2022/12/31 03:28:04;;;;;;;19.20;10.00;;;;;;;;;;4993209;28;20531;-72
2022/12/31 03:30:30;;;;;;;20.58;9.85;;;;;;;;;;4976654;28;20089;-74
2022/12/31 03:32:56;;;;;;;19.80;10.47;;;;;;;;;;4976837;28;20034;-73
2022/12/31 03:35:22;;;;;;;18.07;9.73;;;;;;;;;;4960563;28;20054;-73
2022/12/31 03:37:48;;;;;;;16.50;9.83;;;;;;;;;;4960777;28;20040;-72
2022/12/31 03:40:13;;;;;;;16.23;9.30;;;;;;;;;;4976706;28;20038;-73
2022/12/31 03:42:40;;;;;;;14.57;9.67;;;;;;;;;;4990669;28;20390;-73
2022/12/31 03:45:06;;;;;;;14.23;8.97;;;;;;;;;;4956706;28;20043;-74
2022/12/31 03:47:32;;;;;;;15.17;9.17;;;;;;;;;;4956535;28;20153;-73
2022/12/31 03:49:57;;;;;;;16.57;10.03;;;;;;;;;;4956992;28;20129;-73
2022/12/31 03:52:23;;;;;;;21.07;10.17;;;;;;;;;;4941220;28;20065;-73
2022/12/31 03:54:48;;;;;;;19.07;10.27;;;;;;;;;;4957071;28;20035;-74
2022/12/31 03:57:14;;;;;;;19.00;10.30;;;;;;;;;;4973259;28;20376;-74
2022/12/31 03:59:39;;;;;;;16.33;9.40;;;;;;;;;;4973261;28;20074;-74
2022/12/31 04:02:05;;;;;;;19.70;10.80;;;;;;;;;;4941039;28;20465;-74
2022/12/31 04:04:30;;;;;;;13.83;9.00;;;;;;;;;;4973099;28;20038;-74
2022/12/31 04:06:56;;;;;;;16.07;9.73;;;;;;;;;;4972926;28;20054;-73
2022/12/31 04:09:22;;;;;;;16.03;9.57;;;;;;;;;;4973160;28;20047;-72
2022/12/31 04:11:47;;;;;;;15.27;9.43;;;;;;;;;;4956637;28;20473;-72
2022/12/31 04:14:13;;;;;;;17.20;8.75;;;;;;;;;;4956624;28;20073;-73
2022/12/31 04:16:38;;;;;;;16.23;9.33;;;;;;;;;;4957322;28;20038;-73
2022/12/31 04:19:04;;;;;;;14.40;8.77;;;;;;;;;;4973127;28;20039;-72
2022/12/31 04:21:29;;;;;;;17.43;9.97;;;;;;;;;;4956766;28;20039;-72
2022/12/31 04:23:55;;;;;;;15.27;8.70;;;;;;;;;;4956805;28;20030;-72
2022/12/31 04:26:21;;;;;;;17.27;9.47;;;;;;;;;;4972555;28;20046;-73
2022/12/31 04:28:46;;;;;;;15.82;9.02;;;;;;;;;;4956642;28;20444;-73
2022/12/31 04:31:12;;;;;;;15.65;9.40;;;;;;;;;;4956359;28;20049;-73
2022/12/31 04:33:38;;;;;;;15.67;9.47;;;;;;;;;;4956740;28;20089;-73
2022/12/31 04:36:04;;;;;;;15.83;9.60;;;;;;;;;;4956245;28;20030;-73
2022/12/31 04:38:29;;;;;;;16.75;9.15;;;;;;;;;;4956395;28;20038;-73
2022/12/31 04:43:39;;;;;;;19.05;9.35;;;;;;;;;;4956425;28;20031;-73
2022/12/31 04:46:05;;;;;;;18.20;9.55;;;;;;;;;;4955963;28;20061;-72
2022/12/31 04:48:34;;;;;;;18.48;10.32;;;;;;;;;;4956037;28;20146;-71
2022/12/31 04:51:00;;;;;;;17.35;10.15;;;;;;;;;;4939674;28;20058;-71
2022/12/31 04:53:27;;;;;;;21.88;10.48;;;;;;;;;;4956032;28;20038;-71
2022/12/31 04:55:52;;;;;;;19.75;10.52;;;;;;;;;;4955591;28;20101;-71
2022/12/31 04:58:18;;;;;;;14.38;9.57;;;;;;;;;;4939919;28;20066;-71
2022/12/31 05:00:50;;;;;;;21.08;10.30;;;;;;;;;;4956067;28;20030;-71
2022/12/31 05:03:16;;;;;;;18.95;9.75;;;;;;;;;;4971967;28;20027;-71
2022/12/31 05:05:42;;;;;;;16.65;9.73;;;;;;;;;;4955879;28;20047;-73
2022/12/31 05:08:11;;;;;;;17.23;9.13;;;;;;;;;;4956001;28;20041;-71
2022/12/31 05:10:40;;;;;;;19.40;9.70;;;;;;;;;;4940086;28;20042;-73
2022/12/31 05:13:06;;;;;;;20.60;10.50;;;;;;;;;;4939787;28;20045;-72
2022/12/31 05:15:31;;;;;;;21.85;12.02;;;;;;;;;;4971658;28;20047;-72
2022/12/31 05:17:57;;;;;;;17.35;9.73;;;;;;;;;;4971863;28;20057;-71
2022/12/31 05:20:22;;;;;;;17.23;8.98;;;;;;;;;;4955714;28;20042;-71
2022/12/31 05:22:48;;;;;;;18.20;10.13;;;;;;;;;;4955498;28;20035;-72
2022/12/31 05:25:14;;;;;;;16.00;8.95;;;;;;;;;;4939516;28;20046;-71
2022/12/31 05:27:40;;;;;;;13.23;8.10;;;;;;;;;;4971900;28;20055;-70
2022/12/31 05:30:08;;;;;;;16.20;8.90;;;;;;;;;;4955579;28;20053;-71
2022/12/31 05:32:36;;;;;;;14.55;8.48;;;;;;;;;;4955413;28;20120;-71
2022/12/31 05:35:02;;;;;;;14.98;8.00;;;;;;;;;;4971262;28;20042;-70
2022/12/31 05:37:28;;;;;;;12.07;7.30;;;;;;;;;;4939320;28;20492;-70
2022/12/31 05:39:54;;;;;;;12.23;7.35;;;;;;;;;;4971414;28;20047;-71
2022/12/31 05:42:20;;;;;;;10.88;7.35;;;;;;;;;;4954917;28;20438;-70
2022/12/31 05:44:46;;;;;;;12.82;7.05;;;;;;;;;;4955324;28;20053;-70
2022/12/31 05:47:11;;;;;;;9.18;6.20;;;;;;;;;;4954964;28;20050;-72
2022/12/31 05:49:38;;;;;;;8.50;6.00;;;;;;;;;;4955388;28;20081;-72
2022/12/31 05:52:06;;;;;;;10.88;6.20;;;;;;;;;;4970991;28;20070;-71
2022/12/31 05:54:36;;;;;;;7.88;5.55;;;;;;;;;;4954828;28;20093;-73
2022/12/31 05:57:30;;;;;;;8.15;5.82;;;;;;;;;;4955359;28;20045;-72
2022/12/31 06:00:02;;;;;;;9.95;5.70;;;;;;;;;;4939627;28;20039;-73
2022/12/31 06:02:42;;;;;;;8.02;5.72;;;;;;;;;;4956822;28;20133;-73
2022/12/31 06:05:09;;;;;;;8.15;5.53;;;;;;;;;;4954800;28;20041;-72
2022/12/31 06:07:34;;;;;;;7.72;5.60;;;;;;;;;;4955731;28;20157;-71
2022/12/31 06:10:00;;;;;;;8.80;5.93;;;;;;;;;;4977169;28;20041;-71
2022/12/31 06:12:26;;;;;;;7.43;5.38;;;;;;;;;;4961045;28;20366;-72
2022/12/31 06:14:51;;;;;;;11.82;5.75;;;;;;;;;;4945088;28;20401;-72
2022/12/31 06:17:17;;;;;;;11.60;5.95;;;;;;;;;;4977131;28;20038;-72
2022/12/31 06:19:43;;;;;;;14.77;7.57;;;;;;;;;;4977009;28;20038;-72
2022/12/31 06:22:08;;;;;;;29.65;12.48;;;;;;;;;;4961285;28;20113;-72
2022/12/31 06:24:34;;;;;;;12.30;8.07;;;;;;;;;;4961221;28;20540;-72
2022/12/31 06:27:00;;;;;;;16.02;7.63;;;;;;;;;;4960947;28;20043;-72
2022/12/31 06:29:25;;;;;;;22.50;9.75;;;;;;;;;;4961102;28;20026;-72
2022/12/31 06:31:51;;;;;;;11.82;6.93;;;;;;;;;;4978291;28;20043;-72
2022/12/31 06:34:16;;;;;;;10.50;6.35;;;;;;;;;;4977289;28;20039;-71
2022/12/31 06:36:42;;;;;;;10.55;6.72;;;;;;;;;;4960989;28;20039;-73
2022/12/31 06:39:07;;;;;;;11.32;6.43;;;;;;;;;;4961376;28;20030;-72
2022/12/31 06:41:33;;;;;;;15.40;6.80;;;;;;;;;;4960837;28;20042;-71
2022/12/31 06:43:58;;;;;;;11.90;7.25;;;;;;;;;;4960881;28;20049;-71
2022/12/31 06:46:24;;;;;;;9.82;6.45;;;;;;;;;;4962344;28;20045;-70
2022/12/31 06:48:50;;;;;;;12.63;7.35;;;;;;;;;;4953223;28;20092;-73
2022/12/31 06:51:17;;;;;;;13.13;7.60;;;;;;;;;;4954562;28;20149;-74
2022/12/31 06:53:46;;;;;;;12.15;6.68;;;;;;;;;;4952857;28;20030;-74
2022/12/31 06:56:14;;;;;;;8.77;6.20;;;;;;;;;;4952595;28;20061;-74
2022/12/31 06:58:40;;;;;;;9.73;6.80;;;;;;;;;;4982425;28;20031;-73
2022/12/31 07:01:23;;;;;;;12.63;7.00;;;;;;;;;;4966927;28;20473;-72
2022/12/31 07:03:55;;;;;;;12.95;7.28;;;;;;;;;;4967982;28;20096;-74
2022/12/31 07:06:32;;;;;;;13.40;7.28;;;;;;;;;;4967709;28;20081;-74
2022/12/31 07:09:01;;;;;;;10.20;6.68;;;;;;;;;;4972857;28;20535;-74
2022/12/31 07:11:34;;;;;;;11.75;7.18;;;;;;;;;;4980149;28;20072;-74
2022/12/31 07:14:09;;;;;;;14.65;7.43;;;;;;;;;;4982438;28;20551;-74
2022/12/31 07:16:38;;;;;;;15.63;7.25;;;;;;;;;;4960795;28;20038;-76
2022/12/31 07:19:08;;;;;;;12.93;6.57;;;;;;;;;;4976602;28;20065;-72
2022/12/31 07:21:38;;;;;;;13.57;7.78;;;;;;;;;;4957876;28;20054;-70
2022/12/31 07:24:07;;;;;;;11.73;7.30;;;;;;;;;;4946288;28;20034;-72
2022/12/31 07:26:33;;;;;;;12.97;7.30;;;;;;;;;;4980121;28;20054;-72
2022/12/31 07:29:17;;;;;;;10.05;6.88;;;;;;;;;;4965602;28;20038;-71
2022/12/31 07:31:49;;;;;;;9.95;6.45;;;;;;;;;;4964634;28;20050;-71
2022/12/31 07:34:20;;;;;;;10.75;6.97;;;;;;;;;;4974073;28;20039;-73
2022/12/31 07:36:46;;;;;;;10.30;6.82;;;;;;;;;;4948184;28;20039;-73
2022/12/31 07:39:24;;;;;;;14.82;7.90;;;;;;;;;;4946468;28;20053;-73
2022/12/31 07:42:24;;;;;;;16.10;7.38;;;;;;;;;;4961410;28;20040;-73
2022/12/31 07:44:57;;;;;;;12.80;7.37;;;;;;;;;;4962411;28;20046;-74
2022/12/31 07:47:24;;;;;;;13.75;7.35;;;;;;;;;;4959856;28;20042;-73
2022/12/31 07:49:50;;;;;;;13.77;7.93;;;;;;;;;;4950158;28;20042;-72
2022/12/31 07:52:16;;;;;;;13.90;8.32;;;;;;;;;;4981849;28;20054;-71
2022/12/31 07:54:42;;;;;;;12.45;7.18;;;;;;;;;;4959171;28;20041;-76
2022/12/31 07:57:09;;;;;;;16.13;7.50;;;;;;;;;;4963366;28;20054;-72
2022/12/31 07:59:54;;;;;;;14.18;6.85;;;;;;;;;;4956360;28;20384;-74
2022/12/31 08:02:26;;;;;;;11.45;6.47;;;;;;;;;;4949085;28;20130;-75
2022/12/31 08:04:58;;;;;;;10.73;6.68;;;;;;;;;;4981555;28;20121;-73
2022/12/31 08:07:33;;;;;;;13.70;7.60;;;;;;;;;;4950226;28;20046;-71
2022/12/31 08:10:11;;;;;;;10.23;6.45;;;;;;;;;;4960596;28;20089;-70
2022/12/31 08:12:39;;;;;;;12.55;7.40;;;;;;;;;;4965924;28;20047;-72
2022/12/31 08:15:12;;;;;;;10.40;6.22;;;;;;;;;;4979981;28;20597;-72
2022/12/31 08:17:37;;;;;;;13.45;6.90;;;;;;;;;;4947673;28;20065;-72
2022/12/31 08:20:03;;;;;;;11.77;6.75;;;;;;;;;;4978730;28;20030;-73
2022/12/31 08:22:47;;;;;;;13.52;8.07;;;;;;;;;;4971049;28;20038;-74
2022/12/31 08:25:26;;;;;;;10.70;6.53;;;;;;;;;;4964536;28;20468;-73
2022/12/31 08:27:58;;;;;;;16.73;6.80;;;;;;;;;;4955964;28;20484;-73
2022/12/31 08:30:27;;;;;;;10.02;6.40;;;;;;;;;;4962052;28;20472;-73
2022/12/31 08:33:19;;;;;;;12.90;7.00;;;;;;;;;;4953273;28;20477;-74
2022/12/31 08:35:53;;;;;;;15.95;6.43;;;;;;;;;;4954588;28;20049;-74
2022/12/31 08:38:27;;;;;;;9.88;6.35;;;;;;;;;;4956144;28;20035;-73
2022/12/31 08:41:11;;;;;;;10.45;5.85;;;;;;;;;;4940290;28;20038;-74
2022/12/31 08:43:47;;;;;;;13.77;6.10;;;;;;;;;;4972549;28;20038;-73
2022/12/31 08:46:21;;;;;;;9.57;6.03;;;;;;;;;;4955544;28;20042;-73
2022/12/31 08:48:47;;;;;;;10.23;5.78;;;;;;;;;;4960745;28;20062;-74
2022/12/31 08:51:20;;;;;;;10.95;6.05;;;;;;;;;;4964950;28;20118;-72
2022/12/31 08:53:47;;;;;;;9.40;5.97;;;;;;;;;;4949412;28;20034;-73
2022/12/31 08:56:32;;;;;;;13.88;6.90;;;;;;;;;;4980183;28;20053;-74
2022/12/31 08:59:27;;;;;;;13.23;7.25;;;;;;;;;;4962147;28;20137;-72
2022/12/31 09:01:53;;;;;;;9.82;6.03;;;;;;;;;;4919546;28;20043;-73
2022/12/31 09:04:23;;;;;;;14.75;7.85;;;;;;;;;;4955742;28;20038;-74
2022/12/31 09:06:55;;;;;;;12.10;7.00;;;;;;;;;;4969378;28;20572;-74
2022/12/31 09:09:30;;;;;;;11.27;6.83;;;;;;;;;;4987404;28;20104;-75
2022/12/31 09:12:05;;;;;;;9.82;6.20;;;;;;;;;;4987500;28;20073;-72
2022/12/31 09:14:48;;;;;;;12.43;6.85;;;;;;;;;;4985960;28;20062;-74
2022/12/31 09:17:23;;;;;;;11.40;6.85;;;;;;;;;;4969980;28;20057;-74
2022/12/31 09:19:49;;;;;;;11.98;6.35;;;;;;;;;;4969621;28;20476;-73
2022/12/31 09:22:15;;;;;;;16.48;7.20;;;;;;;;;;4973799;28;20132;-75
2022/12/31 09:24:40;;;;;;;11.20;7.05;;;;;;;;;;4971936;28;20544;-75
2022/12/31 09:27:25;;;;;;;10.15;6.35;;;;;;;;;;4955230;28;20035;-73
2022/12/31 09:29:56;;;;;;;9.43;6.10;;;;;;;;;;4963700;28;20042;-76
2022/12/31 09:32:24;;;;;;;12.40;6.47;;;;;;;;;;4980278;28;20079;-74
2022/12/31 09:34:59;;;;;;;8.93;6.03;;;;;;;;;;4944422;28;20037;-76
2022/12/31 09:37:28;;;;;;;10.55;6.40;;;;;;;;;;4980177;28;20475;-74
2022/12/31 09:39:56;;;;;;;9.77;6.28;;;;;;;;;;4962090;28;20030;-74
2022/12/31 09:42:21;;;;;;;14.20;6.07;;;;;;;;;;4962664;28;20131;-71
2022/12/31 09:44:59;;;;;;;12.45;6.28;;;;;;;;;;4948348;28;20472;-78
2022/12/31 09:47:44;;;;;;;11.93;6.32;;;;;;;;;;4956898;28;20773;-74
2022/12/31 09:50:14;;;;;;;13.45;6.30;;;;;;;;;;4941433;28;20100;-77
2022/12/31 09:52:41;;;;;;;;;;;;;;;;;;4971185;28;20481;-78
2022/12/31 09:55:06;;;;;;;10.15;6.00;;;;;;;;;;4942045;28;19984;-78
2022/12/31 09:57:38;;;;;;;10.52;6.32;;;;;;;;;;4948604;28;20397;-79
2022/12/31 10:00:09;;;;;;;9.55;6.60;;;;;;;;;;4971339;28;20465;-76
2022/12/31 10:02:38;;;;;;;14.68;6.85;;;;;;;;;;4972820;28;20083;-83
2022/12/31 10:05:05;;;;;;;10.10;6.75;;;;;;;;;;4955265;28;20039;-80
2022/12/31 10:07:56;;;;;;;14.15;6.30;;;;;;;;;;4939040;28;20880;-81
2022/12/31 10:10:37;;;;;;;15.77;6.40;;;;;;;;;;4968542;28;20047;-84
2022/12/31 10:13:06;;;;;;;11.60;6.43;;;;;;;;;;4940355;28;20237;-74
2022/12/31 10:15:38;;;;;;;13.52;6.90;;;;;;;;;;4937888;28;20046;-73
2022/12/31 10:18:10;;;;;;;14.40;6.95;;;;;;;;;;4953889;28;20039;-73
2022/12/31 10:20:36;;;;;;;10.05;6.38;;;;;;;;;;4970131;28;20035;-80
2022/12/31 10:23:20;;;;;;;13.65;7.47;;;;;;;;;;4970099;28;20539;-81
2022/12/31 10:25:47;;;;;;;16.13;8.50;;;;;;;;;;4970039;28;20105;-81
2022/12/31 10:28:33;;;;;;;17.98;9.63;;;;;;;;;;4938086;28;20038;-75
2022/12/31 10:31:08;;;;;;;17.80;10.70;;;;;;;;;;4970035;28;20042;-77
2022/12/31 10:33:42;;;;;;;14.65;8.70;;;;;;;;;;4954718;28;20034;-76
2022/12/31 10:36:14;;;;;;;16.77;9.45;;;;;;;;;;4970999;28;20069;-76
2022/12/31 10:38:49;;;;;;;22.30;12.98;;;;;;;;;;4954461;28;20095;-78
2022/12/31 10:41:52;;;;;;;19.30;9.15;;;;;;;;;;4953915;28;20050;-78
2022/12/31 10:44:20;;;;;;;39.20;16.65;;;;;;;;;;4948742;28;20160;-78
2022/12/31 10:46:46;;;;;;;24.98;12.48;;;;;;;;;;4954325;28;20054;-75
2022/12/31 10:49:17;;;;;;;25.80;12.68;;;;;;;;;;4964505;28;20044;-75
2022/12/31 10:51:43;;;;;;;21.00;11.93;;;;;;;;;;4945080;28;20513;-79
2022/12/31 10:54:18;;;;;;;35.08;17.70;;;;;;;;;;4978813;28;20034;-77
2022/12/31 10:56:49;;;;;;;31.08;16.70;;;;;;;;;;4950581;28;20537;-72
2022/12/31 10:59:15;;;;;;;25.88;13.48;;;;;;;;;;4990646;28;20061;-77
2022/12/31 11:01:47;;;;;;;13.88;8.75;;;;;;;;;;4981232;28;20410;-70
2022/12/31 11:04:13;;;;;;;15.75;8.55;;;;;;;;;;4965469;28;20042;-75
2022/12/31 11:06:44;;;;;;;18.20;9.18;;;;;;;;;;4965020;28;20043;-80
2022/12/31 11:09:10;;;;;;;11.95;7.18;;;;;;;;;;4967536;28;20141;-72
2022/12/31 11:11:48;;;;;;;13.77;7.45;;;;;;;;;;4975028;28;20441;-76
2022/12/31 11:14:16;;;;;;;18.10;8.55;;;;;;;;;;4958953;28;20129;-76
2022/12/31 11:16:45;;;;;;;12.32;7.30;;;;;;;;;;4950908;28;20038;-74
2022/12/31 11:19:19;;;;;;;13.20;6.68;;;;;;;;;;4960772;28;20042;-77
2022/12/31 11:22:03;;;;;;;16.58;9.80;;;;;;;;;;4957231;28;20052;-75
2022/12/31 11:24:32;;;;;;;20.30;10.32;;;;;;;;;;4973050;28;20514;-75
2022/12/31 11:27:07;;;;;;;16.60;9.90;;;;;;;;;;4956946;28;20050;-78
2022/12/31 11:29:59;;;;;;;17.23;8.65;;;;;;;;;;4956785;28;20047;-76
2022/12/31 11:32:43;;;;;;;15.23;8.27;;;;;;;;;;4961409;28;20055;-81
2022/12/31 11:35:15;;;;;;;19.90;8.27;;;;;;;;;;4983073;28;20063;-71
2022/12/31 11:37:44;;;;;;;15.48;8.20;;;;;;;;;;4975587;28;20475;-76
2022/12/31 11:40:28;;;;;;;15.98;7.97;;;;;;;;;;4979573;28;20067;-77
2022/12/31 11:43:00;;;;;;;18.98;9.32;;;;;;;;;;4980176;28;20516;-77
2022/12/31 11:45:34;;;;;;;19.02;9.02;;;;;;;;;;4965241;28;20136;-78
2022/12/31 11:48:18;;;;;;;13.32;7.22;;;;;;;;;;4977283;28;20055;-77
2022/12/31 11:50:47;;;;;;;15.57;7.38;;;;;;;;;;4981399;28;20125;-81
2022/12/31 11:53:12;;;;;;;13.82;7.47;;;;;;;;;;4948276;28;20470;-80
2022/12/31 11:55:47;;;;;;;17.52;7.47;;;;;;;;;;4983372;28;20053;-78
2022/12/31 11:58:15;;;;;;;20.08;8.60;;;;;;;;;;4943928;28;20424;-76
2022/12/31 12:00:44;;;;;;;19.90;6.93;;;;;;;;;;4992011;28;20038;-77
2022/12/31 12:03:12;;;;;;;21.58;10.13;;;;;;;;;;4964114;28;20065;-81
2022/12/31 12:05:38;;;;;;;22.13;10.30;;;;;;;;;;4970598;28;20122;-79
2022/12/31 12:08:04;;;;;;;15.60;7.00;;;;;;;;;;4938418;28;20129;-77
2022/12/31 12:10:31;;;;;;;15.43;7.15;;;;;;;;;;4972148;28;20037;-77
2022/12/31 12:13:00;;;;;;;20.80;8.45;;;;;;;;;;4987981;28;20429;-77
2022/12/31 12:15:27;;;;;;;15.88;7.45;;;;;;;;;;4955364;28;20740;-78
2022/12/31 12:17:55;;;;;;;14.52;7.32;;;;;;;;;;4972361;28;20141;-79
2022/12/31 12:20:32;;;;;;;11.38;6.60;;;;;;;;;;4987866;28;20113;-77
2022/12/31 12:22:59;;;;;;;10.40;6.53;;;;;;;;;;4980085;28;20042;-78
2022/12/31 12:25:38;;;;;;;14.07;6.65;;;;;;;;;;4985181;28;20070;-82
2022/12/31 12:28:16;;;;;;;12.80;6.43;;;;;;;;;;4984883;28;20107;-77
2022/12/31 12:30:45;;;;;;;10.70;6.00;;;;;;;;;;4966852;28;20039;-73
2022/12/31 12:33:14;;;;;;;11.00;5.88;;;;;;;;;;4982416;28;20373;-71
2022/12/31 12:35:40;;;;;;;17.42;7.07;;;;;;;;;;4966406;28;20066;-73
2022/12/31 12:38:07;;;;;;;10.93;5.97;;;;;;;;;;4984312;28;20046;-75
2022/12/31 12:40:33;;;;;;;13.90;5.75;;;;;;;;;;4982285;28;20046;-75
2022/12/31 12:42:59;;;;;;;12.93;6.57;;;;;;;;;;4970124;28;20041;-74
2022/12/31 12:45:27;;;;;;;13.55;5.63;;;;;;;;;;4975698;28;20034;-74
2022/12/31 12:47:54;;;;;;;13.27;6.22;;;;;;;;;;4975798;28;20084;-74
2022/12/31 12:50:25;;;;;;;9.77;6.43;;;;;;;;;;4976258;28;20484;-77
2022/12/31 12:53:07;;;;;;;8.98;5.50;;;;;;;;;;4972542;28;20054;-74
2022/12/31 12:55:53;;;;;;;8.00;4.63;;;;;;;;;;4980837;28;20465;-80
2022/12/31 12:58:25;;;;;;;11.52;5.35;;;;;;;;;;4949579;28;20046;-81
2022/12/31 13:00:57;;;;;;;9.07;5.20;;;;;;;;;;4975916;28;20386;-79
2022/12/31 13:03:33;;;;;;;6.57;4.00;;;;;;;;;;4993408;28;20102;-87
2022/12/31 13:06:04;;;;;;;8.13;4.38;;;;;;;;;;4962170;28;20049;-83
2022/12/31 13:08:49;;;;;;;12.52;4.90;;;;;;;;;;4959649;28;20084;-82
2022/12/31 13:11:20;;;;;;;8.98;4.38;;;;;;;;;;4977020;28;20085;-70
2022/12/31 13:13:52;;;;;;;12.77;4.55;;;;;;;;;;4993199;28;20065;-79
2022/12/31 13:16:27;;;;;;;10.27;5.55;;;;;;;;;;4983816;28;20050;-80
2022/12/31 13:18:55;;;;;;;9.65;5.25;;;;;;;;;;4963249;28;20035;-77
2022/12/31 13:21:21;;;;;;;8.68;4.30;;;;;;;;;;4950193;28;20045;-81
2022/12/31 13:23:53;;;;;;;11.40;5.80;;;;;;;;;;4967266;28;20106;-80
2022/12/31 13:26:39;;;;;;;7.97;4.72;;;;;;;;;;4964131;28;20042;-81
2022/12/31 13:29:04;;;;;;;8.05;4.78;;;;;;;;;;4950422;28;20046;-80
2022/12/31 13:31:41;;;;;;;6.68;4.40;;;;;;;;;;4964677;28;20045;-75
2022/12/31 13:34:13;;;;;;;11.80;5.40;;;;;;;;;;4981479;28;20034;-81
2022/12/31 13:36:40;;;;;;;7.32;4.22;;;;;;;;;;4966202;28;20089;-80
2022/12/31 13:39:23;;;;;;;9.20;4.55;;;;;;;;;;4957421;28;20536;-74
2022/12/31 13:41:55;;;;;;;8.05;4.43;;;;;;;;;;4943229;28;20046;-84
2022/12/31 13:44:34;;;;;;;6.20;4.13;;;;;;;;;;4973322;28;20051;-80
2022/12/31 13:47:02;;;;;;;6.38;3.72;;;;;;;;;;4941794;28;20047;-83
2022/12/31 13:49:38;;;;;;;5.78;3.72;;;;;;;;;;4958178;28;20034;-82
2022/12/31 13:52:16;;;;;;;7.50;4.00;;;;;;;;;;4942894;28;20963;-83
2022/12/31 13:54:47;;;;;;;5.28;3.53;;;;;;;;;;4949044;28;20034;-83
2022/12/31 13:57:32;;;;;;;7.80;3.90;;;;;;;;;;4962139;28;20112;-82
2022/12/31 14:00:00;;;;;;;8.20;3.92;;;;;;;;;;4970151;28;20030;-80
2022/12/31 14:02:44;;;;;;;9.95;4.10;;;;;;;;;;4964935;28;20069;-77
2022/12/31 14:05:18;;;;;;;10.95;4.00;;;;;;;;;;4964705;28;20030;-78
2022/12/31 14:07:51;;;;;;;6.95;4.15;;;;;;;;;;4973130;28;20499;-75
2022/12/31 14:10:17;;;;;;;7.55;4.45;;;;;;;;;;4972663;28;20122;-77
2022/12/31 14:12:58;;;;;;;8.13;4.30;;;;;;;;;;4973276;28;20039;-77
2022/12/31 14:15:36;;;;;;;5.78;3.20;;;;;;;;;;4956757;28;20121;-77
2022/12/31 14:18:11;;;;;;;5.97;3.75;;;;;;;;;;4941345;28;20050;-79
2022/12/31 14:21:03;;;;;;;5.47;3.20;;;;;;;;;;4976338;28;20103;-81
2022/12/31 14:23:28;;;;;;;7.35;3.83;;;;;;;;;;4965989;28;20043;-84
2022/12/31 14:25:59;;;;;;;7.00;3.67;;;;;;;;;;4956853;28;20030;-79
2022/12/31 14:28:28;;;;;;;6.05;3.80;;;;;;;;;;4964770;28;20120;-76
2022/12/31 14:31:18;;;;;;;11.90;4.70;;;;;;;;;;4952430;28;20031;-79
2022/12/31 14:33:51;;;;;;;7.32;3.90;;;;;;;;;;4963773;28;20042;-75
2022/12/31 14:36:37;;;;;;;11.27;4.75;;;;;;;;;;4975037;28;20041;-77
2022/12/31 14:39:26;;;;;;;8.20;3.75;;;;;;;;;;4951874;28;20056;-76
2022/12/31 14:42:01;;;;;;;8.90;4.60;;;;;;;;;;4936277;28;20043;-75
2022/12/31 14:44:36;;;;;;;11.98;5.70;;;;;;;;;;4960793;28;20484;-71
2022/12/31 14:47:31;;;;;;;11.25;5.75;;;;;;;;;;4965449;28;20042;-68
2022/12/31 14:50:17;;;;;;;10.05;6.07;;;;;;;;;;4944475;28;20053;-71
2022/12/31 14:52:47;;;;;;;8.75;5.63;;;;;;;;;;4985937;28;20128;-69
2022/12/31 14:55:16;;;;;;;9.60;6.38;;;;;;;;;;4971452;28;20723;-68